sensor_id;sensor_type;location;lat;lon;timestamp;pressure;altitude;pressure_sealevel;temperature;humidity
34983;BME280;21187;50.976;13.720;2023-07-02T00:03:47;97262.91;;;20.72;55.50
34983;BME280;21187;50.976;13.720;2023-07-02T00:08:49;97262.91;;;20.72;55.56
34983;BME280;21187;50.976;13.720;2023-07-02T00:13:51;97265.66;;;20.72;55.45
34983;BME280;21187;50.976;13.720;2023-07-02T00:18:53;97258.06;;;20.76;55.42
34983;BME280;21187;50.976;13.720;2023-07-02T00:23:55;97261.47;;;20.81;55.33
34983;BME280;21187;50.976;13.720;2023-07-02T00:29:00;97258.72;;;20.81;55.29
34983;BME280;21187;50.976;13.720;2023-07-02T00:34:03;97255.97;;;20.81;55.32
34983;BME280;21187;50.976;13.720;2023-07-02T00:39:05;97258.72;;;20.81;55.25
34983;BME280;21187;50.976;13.720;2023-07-02T00:44:07;97251.69;;;20.80;55.57
34983;BME280;21187;50.976;13.720;2023-07-02T00:49:12;97261.81;;;20.83;55.29
34983;BME280;21187;50.976;13.720;2023-07-02T00:54:14;97259.63;;;20.77;55.63
34983;BME280;21187;50.976;13.720;2023-07-02T00:59:16;97260.28;;;20.82;55.45
34983;BME280;21187;50.976;13.720;2023-07-02T01:04:18;97255.09;;;20.84;55.44
34983;BME280;21187;50.976;13.720;2023-07-02T01:09:20;97259.19;;;20.92;55.22
34983;BME280;21187;50.976;13.720;2023-07-02T01:14:36;97244.88;;;20.97;54.96
34983;BME280;21187;50.976;13.720;2023-07-02T01:19:53;97244.19;;;20.93;55.17
34983;BME280;21187;50.976;13.720;2023-07-02T01:24:56;97239.81;;;20.83;55.49
34983;BME280;21187;50.976;13.720;2023-07-02T01:29:58;97244.06;;;20.84;55.50
34983;BME280;21187;50.976;13.720;2023-07-02T01:35:00;97240.66;;;20.80;55.66
34983;BME280;21187;50.976;13.720;2023-07-02T01:40:03;97240.34;;;20.77;55.80
34983;BME280;21187;50.976;13.720;2023-07-02T01:45:08;97243.13;;;20.77;55.85
34983;BME280;21187;50.976;13.720;2023-07-02T01:50:10;97253.66;;;20.79;55.84
34983;BME280;21187;50.976;13.720;2023-07-02T01:55:12;97246.19;;;20.80;55.79
34983;BME280;21187;50.976;13.720;2023-07-02T02:00:14;97249.47;;;20.74;56.32
34983;BME280;21187;50.976;13.720;2023-07-02T02:05:17;97267.38;;;20.66;56.94
34983;BME280;21187;50.976;13.720;2023-07-02T02:10:23;97268.16;;;20.54;57.70
34983;BME280;21187;50.976;13.720;2023-07-02T02:15:25;97261.88;;;20.40;57.96
34983;BME280;21187;50.976;13.720;2023-07-02T02:20:26;97272.53;;;20.38;58.42
34983;BME280;21187;50.976;13.720;2023-07-02T02:25:28;97266.56;;;20.27;58.75
34983;BME280;21187;50.976;13.720;2023-07-02T02:30:30;97257.66;;;20.23;59.14
34983;BME280;21187;50.976;13.720;2023-07-02T02:35:32;97256.22;;;20.18;59.24
34983;BME280;21187;50.976;13.720;2023-07-02T02:40:34;97269.53;;;20.20;59.34
34983;BME280;21187;50.976;13.720;2023-07-02T02:45:40;97255.13;;;20.16;59.34
34983;BME280;21187;50.976;13.720;2023-07-02T02:50:42;97260.63;;;20.16;59.55
34983;BME280;21187;50.976;13.720;2023-07-02T02:55:45;97271.72;;;20.12;59.68
34983;BME280;21187;50.976;13.720;2023-07-02T03:00:46;97266.78;;;20.20;59.45
34983;BME280;21187;50.976;13.720;2023-07-02T03:05:52;97267.66;;;20.17;59.39
34983;BME280;21187;50.976;13.720;2023-07-02T03:10:54;97268.00;;;20.19;59.14
34983;BME280;21187;50.976;13.720;2023-07-02T03:15:56;97269.88;;;20.22;59.15
34983;BME280;21187;50.976;13.720;2023-07-02T03:20:59;97266.25;;;20.25;58.86
34983;BME280;21187;50.976;13.720;2023-07-02T03:26:01;97277.69;;;20.23;59.01
34983;BME280;21187;50.976;13.720;2023-07-02T03:31:03;97280.00;;;20.25;58.89
34983;BME280;21187;50.976;13.720;2023-07-02T03:36:06;97279.47;;;20.30;58.54
34983;BME280;21187;50.976;13.720;2023-07-02T03:41:08;97283.75;;;20.31;58.59
34983;BME280;21187;50.976;13.720;2023-07-02T03:46:10;97292.66;;;20.35;58.27
34983;BME280;21187;50.976;13.720;2023-07-02T03:51:12;97293.88;;;20.34;58.33
34983;BME280;21187;50.976;13.720;2023-07-02T03:56:16;97295.41;;;20.35;58.32
34983;BME280;21187;50.976;13.720;2023-07-02T04:01:18;97299.16;;;20.41;58.03
34983;BME280;21187;50.976;13.720;2023-07-02T04:06:19;97303.91;;;20.41;58.12
34983;BME280;21187;50.976;13.720;2023-07-02T04:11:21;97318.66;;;20.47;58.09
34983;BME280;21187;50.976;13.720;2023-07-02T04:16:23;97313.72;;;20.55;57.78
34983;BME280;21187;50.976;13.720;2023-07-02T04:21:25;97317.88;;;20.47;57.96
34983;BME280;21187;50.976;13.720;2023-07-02T04:26:28;97334.59;;;20.39;58.39
34983;BME280;21187;50.976;13.720;2023-07-02T04:31:51;97337.66;;;20.41;58.59
34983;BME280;21187;50.976;13.720;2023-07-02T04:36:53;97339.88;;;20.47;58.46
34983;BME280;21187;50.976;13.720;2023-07-02T04:41:55;97343.84;;;20.45;58.46
34983;BME280;21187;50.976;13.720;2023-07-02T04:47:01;97342.97;;;20.49;58.50
34983;BME280;21187;50.976;13.720;2023-07-02T04:52:03;97358.25;;;20.50;58.38
34983;BME280;21187;50.976;13.720;2023-07-02T04:57:05;97365.97;;;20.55;58.38
34983;BME280;21187;50.976;13.720;2023-07-02T05:02:07;97361.34;;;20.52;58.24
34983;BME280;21187;50.976;13.720;2023-07-02T05:07:09;97364.47;;;20.37;58.60
34983;BME280;21187;50.976;13.720;2023-07-02T05:12:11;97376.44;;;20.31;58.67
34983;BME280;21187;50.976;13.720;2023-07-02T05:17:13;97385.22;;;20.25;58.48
34983;BME280;21187;50.976;13.720;2023-07-02T05:22:16;97400.75;;;20.32;58.39
34983;BME280;21187;50.976;13.720;2023-07-02T05:27:20;97398.53;;;20.27;58.13
34983;BME280;21187;50.976;13.720;2023-07-02T05:32:22;97410.47;;;20.07;58.50
34983;BME280;21187;50.976;13.720;2023-07-02T05:37:24;97412.41;;;20.07;58.61
34983;BME280;21187;50.976;13.720;2023-07-02T05:42:26;97413.53;;;20.09;58.48
34983;BME280;21187;50.976;13.720;2023-07-02T05:47:28;97421.09;;;20.22;57.78
34983;BME280;21187;50.976;13.720;2023-07-02T05:52:31;97425.88;;;20.18;57.88
34983;BME280;21187;50.976;13.720;2023-07-02T05:57:33;97431.81;;;20.16;57.90
34983;BME280;21187;50.976;13.720;2023-07-02T06:02:35;97437.16;;;20.23;57.60
34983;BME280;21187;50.976;13.720;2023-07-02T06:07:37;97437.91;;;20.24;57.67
34983;BME280;21187;50.976;13.720;2023-07-02T06:12:40;97449.72;;;20.37;57.22
34983;BME280;21187;50.976;13.720;2023-07-02T06:17:43;97451.81;;;20.33;57.07
34983;BME280;21187;50.976;13.720;2023-07-02T06:22:45;97453.53;;;20.27;57.21
34983;BME280;21187;50.976;13.720;2023-07-02T06:27:47;97456.72;;;20.25;56.93
34983;BME280;21187;50.976;13.720;2023-07-02T06:32:49;97442.38;;;20.18;56.98
34983;BME280;21187;50.976;13.720;2023-07-02T06:37:51;97445.63;;;20.29;56.60
34983;BME280;21187;50.976;13.720;2023-07-02T06:42:53;97452.47;;;20.37;56.24
34983;BME280;21187;50.976;13.720;2023-07-02T06:47:55;97454.78;;;20.39;55.81
34983;BME280;21187;50.976;13.720;2023-07-02T06:52:57;97469.66;;;20.41;55.84
34983;BME280;21187;50.976;13.720;2023-07-02T06:57:59;97473.25;;;20.55;55.82
34983;BME280;21187;50.976;13.720;2023-07-02T07:03:04;97442.88;;;20.75;55.13
34983;BME280;21187;50.976;13.720;2023-07-02T07:08:06;97445.53;;;20.91;54.91
34983;BME280;21187;50.976;13.720;2023-07-02T07:13:08;97452.31;;;21.29;54.09
34983;BME280;21187;50.976;13.720;2023-07-02T07:18:12;97447.69;;;21.52;53.36
34983;BME280;21187;50.976;13.720;2023-07-02T07:23:16;97455.00;;;21.71;52.76
34983;BME280;21187;50.976;13.720;2023-07-02T07:28:19;97457.84;;;21.81;52.13
34983;BME280;21187;50.976;13.720;2023-07-02T07:33:21;97457.06;;;21.80;51.49
34983;BME280;21187;50.976;13.720;2023-07-02T07:38:23;97451.25;;;21.65;51.26
34983;BME280;21187;50.976;13.720;2023-07-02T07:43:24;97440.22;;;21.65;50.77
34983;BME280;21187;50.976;13.720;2023-07-02T07:48:26;97445.94;;;21.84;50.34
34983;BME280;21187;50.976;13.720;2023-07-02T07:53:28;97441.63;;;22.31;49.57
34983;BME280;21187;50.976;13.720;2023-07-02T07:58:31;97447.28;;;22.62;48.91
34983;BME280;21187;50.976;13.720;2023-07-02T08:03:39;97435.56;;;23.02;47.81
34983;BME280;21187;50.976;13.720;2023-07-02T08:08:41;97438.06;;;23.41;46.73
34983;BME280;21187;50.976;13.720;2023-07-02T08:13:43;97436.88;;;23.51;44.62
34983;BME280;21187;50.976;13.720;2023-07-02T08:18:45;97445.22;;;23.29;44.88
34983;BME280;21187;50.976;13.720;2023-07-02T08:23:47;97442.94;;;23.27;44.49
34983;BME280;21187;50.976;13.720;2023-07-02T08:28:48;97443.75;;;23.37;44.45
34983;BME280;21187;50.976;13.720;2023-07-02T08:33:50;97444.88;;;23.49;43.17
34983;BME280;21187;50.976;13.720;2023-07-02T08:38:52;97444.09;;;23.49;42.63
34983;BME280;21187;50.976;13.720;2023-07-02T08:43:55;97442.72;;;23.44;42.50
34983;BME280;21187;50.976;13.720;2023-07-02T08:48:57;97472.16;;;23.79;41.19
34983;BME280;21187;50.976;13.720;2023-07-02T08:54:00;97466.09;;;24.12;40.70
34983;BME280;21187;50.976;13.720;2023-07-02T08:59:02;97468.44;;;24.32;40.05
34983;BME280;21187;50.976;13.720;2023-07-02T09:04:04;97463.97;;;24.43;39.83
34983;BME280;21187;50.976;13.720;2023-07-02T09:09:06;97473.84;;;24.54;38.88
34983;BME280;21187;50.976;13.720;2023-07-02T09:14:08;97472.91;;;24.57;38.64
34983;BME280;21187;50.976;13.720;2023-07-02T09:19:10;97471.22;;;24.87;38.39
34983;BME280;21187;50.976;13.720;2023-07-02T09:24:22;97461.47;;;25.20;38.36
34983;BME280;21187;50.976;13.720;2023-07-02T09:29:30;97452.47;;;25.44;37.35
34983;BME280;21187;50.976;13.720;2023-07-02T09:34:35;97460.44;;;25.51;36.98
34983;BME280;21187;50.976;13.720;2023-07-02T09:39:37;97460.97;;;25.31;34.54
34983;BME280;21187;50.976;13.720;2023-07-02T09:44:41;97474.69;;;25.25;35.09
34983;BME280;21187;50.976;13.720;2023-07-02T09:49:55;97459.13;;;25.70;35.78
34983;BME280;21187;50.976;13.720;2023-07-02T09:54:59;97474.66;;;25.77;34.80
34983;BME280;21187;50.976;13.720;2023-07-02T10:00:02;97465.03;;;25.63;35.53
34983;BME280;21187;50.976;13.720;2023-07-02T10:05:08;97468.53;;;25.73;35.68
34983;BME280;21187;50.976;13.720;2023-07-02T10:10:11;97478.41;;;25.98;35.53
34983;BME280;21187;50.976;13.720;2023-07-02T10:15:24;97464.41;;;25.92;35.48
34983;BME280;21187;50.976;13.720;2023-07-02T10:20:39;97469.91;;;25.78;35.77
34983;BME280;21187;50.976;13.720;2023-07-02T10:25:42;97488.25;;;25.75;34.97
34983;BME280;21187;50.976;13.720;2023-07-02T10:30:43;97473.84;;;25.86;34.69
34983;BME280;21187;50.976;13.720;2023-07-02T10:35:49;97473.91;;;26.01;34.53
34983;BME280;21187;50.976;13.720;2023-07-02T10:40:58;97465.53;;;25.86;34.00
34983;BME280;21187;50.976;13.720;2023-07-02T10:46:02;97475.72;;;25.80;34.69
34983;BME280;21187;50.976;13.720;2023-07-02T10:51:11;97465.88;;;26.12;34.52
34983;BME280;21187;50.976;13.720;2023-07-02T10:56:17;97466.16;;;26.38;34.13
34983;BME280;21187;50.976;13.720;2023-07-02T11:01:24;97468.47;;;26.55;33.88
34983;BME280;21187;50.976;13.720;2023-07-02T11:06:27;97463.00;;;26.46;33.24
34983;BME280;21187;50.976;13.720;2023-07-02T11:11:29;97463.81;;;26.61;33.04
34983;BME280;21187;50.976;13.720;2023-07-02T11:16:31;97469.63;;;26.63;31.91
34983;BME280;21187;50.976;13.720;2023-07-02T11:21:37;97463.44;;;26.29;31.73
34983;BME280;21187;50.976;13.720;2023-07-02T11:26:40;97462.47;;;26.32;32.61
34983;BME280;21187;50.976;13.720;2023-07-02T11:31:42;97474.53;;;26.29;32.75
34983;BME280;21187;50.976;13.720;2023-07-02T11:36:44;97476.19;;;26.12;32.50
34983;BME280;21187;50.976;13.720;2023-07-02T11:41:47;97471.31;;;25.97;32.87
34983;BME280;21187;50.976;13.720;2023-07-02T11:46:50;97484.22;;;26.10;33.37
34983;BME280;21187;50.976;13.720;2023-07-02T11:51:52;97484.09;;;26.28;33.23
34983;BME280;21187;50.976;13.720;2023-07-02T11:56:54;97479.22;;;26.62;32.79
34983;BME280;21187;50.976;13.720;2023-07-02T12:01:55;97483.78;;;26.74;31.76
34983;BME280;21187;50.976;13.720;2023-07-02T12:06:58;97501.19;;;26.36;32.39
34983;BME280;21187;50.976;13.720;2023-07-02T12:11:59;97504.88;;;26.08;32.88
34983;BME280;21187;50.976;13.720;2023-07-02T12:17:02;97504.28;;;26.04;33.64
34983;BME280;21187;50.976;13.720;2023-07-02T12:22:06;97495.38;;;26.24;32.91
34983;BME280;21187;50.976;13.720;2023-07-02T12:27:08;97494.88;;;26.02;32.17
34983;BME280;21187;50.976;13.720;2023-07-02T12:32:10;97502.75;;;26.03;32.27
34983;BME280;21187;50.976;13.720;2023-07-02T12:37:12;97499.75;;;26.16;32.09
34983;BME280;21187;50.976;13.720;2023-07-02T12:42:18;97502.59;;;25.98;32.32
34983;BME280;21187;50.976;13.720;2023-07-02T12:47:20;97511.09;;;25.94;32.87
34983;BME280;21187;50.976;13.720;2023-07-02T12:52:22;97509.56;;;25.93;33.05
34983;BME280;21187;50.976;13.720;2023-07-02T12:57:24;97505.97;;;26.02;33.35
34983;BME280;21187;50.976;13.720;2023-07-02T13:02:28;97505.94;;;26.11;33.13
34983;BME280;21187;50.976;13.720;2023-07-02T13:07:30;97511.28;;;26.24;32.83
34983;BME280;21187;50.976;13.720;2023-07-02T13:12:32;97503.88;;;26.21;32.72
34983;BME280;21187;50.976;13.720;2023-07-02T13:17:34;97506.72;;;26.02;33.02
34983;BME280;21187;50.976;13.720;2023-07-02T13:22:36;97516.06;;;25.90;32.81
34983;BME280;21187;50.976;13.720;2023-07-02T13:27:39;97532.81;;;25.62;33.06
34983;BME280;21187;50.976;13.720;2023-07-02T13:32:41;97530.53;;;25.51;33.50
34983;BME280;21187;50.976;13.720;2023-07-02T13:37:43;97541.00;;;25.56;33.83
34983;BME280;21187;50.976;13.720;2023-07-02T13:42:45;97541.16;;;25.53;33.99
34983;BME280;21187;50.976;13.720;2023-07-02T13:47:47;97539.97;;;25.35;34.61
34983;BME280;21187;50.976;13.720;2023-07-02T13:52:49;97541.91;;;25.53;34.62
34983;BME280;21187;50.976;13.720;2023-07-02T13:57:51;97552.22;;;25.62;34.49
34983;BME280;21187;50.976;13.720;2023-07-02T14:02:53;97541.13;;;25.62;34.72
34983;BME280;21187;50.976;13.720;2023-07-02T14:07:56;97539.31;;;25.50;33.92
34983;BME280;21187;50.976;13.720;2023-07-02T14:12:58;97544.44;;;25.42;33.34
34983;BME280;21187;50.976;13.720;2023-07-02T14:18:00;97559.19;;;25.30;33.31
34983;BME280;21187;50.976;13.720;2023-07-02T14:23:02;97564.31;;;25.40;33.38
34983;BME280;21187;50.976;13.720;2023-07-02T14:28:04;97555.03;;;25.53;33.20
34983;BME280;21187;50.976;13.720;2023-07-02T14:33:06;97555.13;;;25.68;33.41
34983;BME280;21187;50.976;13.720;2023-07-02T14:38:08;97557.69;;;25.81;33.07
34983;BME280;21187;50.976;13.720;2023-07-02T14:43:10;97556.31;;;25.76;32.78
34983;BME280;21187;50.976;13.720;2023-07-02T14:48:12;97569.09;;;25.83;32.51
34983;BME280;21187;50.976;13.720;2023-07-02T14:53:14;97559.50;;;25.93;32.83
34983;BME280;21187;50.976;13.720;2023-07-02T14:58:17;97557.53;;;25.84;32.77
34983;BME280;21187;50.976;13.720;2023-07-02T15:03:22;97573.91;;;25.73;32.63
34983;BME280;21187;50.976;13.720;2023-07-02T15:08:25;97569.75;;;25.78;31.99
34983;BME280;21187;50.976;13.720;2023-07-02T15:13:27;97579.13;;;25.80;31.75
34983;BME280;21187;50.976;13.720;2023-07-02T15:18:29;97572.63;;;25.83;31.92
34983;BME280;21187;50.976;13.720;2023-07-02T15:23:31;97568.47;;;25.79;32.26
34983;BME280;21187;50.976;13.720;2023-07-02T15:28:34;97580.34;;;25.79;32.06
34983;BME280;21187;50.976;13.720;2023-07-02T15:33:38;97578.50;;;25.76;31.55
34983;BME280;21187;50.976;13.720;2023-07-02T15:38:40;97582.34;;;25.79;31.85
34983;BME280;21187;50.976;13.720;2023-07-02T15:43:43;97571.53;;;25.90;32.16
34983;BME280;21187;50.976;13.720;2023-07-02T15:48:46;97581.69;;;25.93;31.53
34983;BME280;21187;50.976;13.720;2023-07-02T15:53:48;97587.47;;;25.71;32.03
34983;BME280;21187;50.976;13.720;2023-07-02T15:58:50;97591.63;;;25.66;32.28
34983;BME280;21187;50.976;13.720;2023-07-02T16:03:52;97597.50;;;25.68;32.20
34983;BME280;21187;50.976;13.720;2023-07-02T16:08:54;97592.09;;;25.74;32.29
34983;BME280;21187;50.976;13.720;2023-07-02T16:13:56;97591.47;;;25.70;32.54
34983;BME280;21187;50.976;13.720;2023-07-02T16:19:00;97587.78;;;25.64;32.82
34983;BME280;21187;50.976;13.720;2023-07-02T16:24:04;97599.63;;;25.64;32.84
34983;BME280;21187;50.976;13.720;2023-07-02T16:29:06;97600.31;;;25.50;32.96
34983;BME280;21187;50.976;13.720;2023-07-02T16:34:08;97607.25;;;25.36;32.78
34983;BME280;21187;50.976;13.720;2023-07-02T16:39:13;97598.78;;;25.30;33.23
34983;BME280;21187;50.976;13.720;2023-07-02T16:44:17;97602.31;;;25.31;33.36
34983;BME280;21187;50.976;13.720;2023-07-02T16:49:25;97606.00;;;25.28;33.01
34983;BME280;21187;50.976;13.720;2023-07-02T16:54:28;97616.47;;;25.23;33.21
34983;BME280;21187;50.976;13.720;2023-07-02T16:59:32;97611.38;;;25.22;33.16
34983;BME280;21187;50.976;13.720;2023-07-02T17:04:39;97621.84;;;25.18;32.91
34983;BME280;21187;50.976;13.720;2023-07-02T17:09:41;97622.78;;;25.24;33.30
34983;BME280;21187;50.976;13.720;2023-07-02T17:14:49;97615.09;;;25.09;33.13
34983;BME280;21187;50.976;13.720;2023-07-02T17:19:52;97623.88;;;24.99;33.88
34983;BME280;21187;50.976;13.720;2023-07-02T17:24:57;97627.38;;;24.90;34.02
34983;BME280;21187;50.976;13.720;2023-07-02T17:30:06;97627.09;;;24.97;33.86
34983;BME280;21187;50.976;13.720;2023-07-02T17:35:09;97626.78;;;25.04;33.60
34983;BME280;21187;50.976;13.720;2023-07-02T17:40:15;97623.06;;;24.89;34.01
34983;BME280;21187;50.976;13.720;2023-07-02T17:45:17;97629.25;;;24.84;33.66
34983;BME280;21187;50.976;13.720;2023-07-02T17:50:19;97625.53;;;24.68;33.64
34983;BME280;21187;50.976;13.720;2023-07-02T17:55:22;97634.44;;;24.72;33.63
34983;BME280;21187;50.976;13.720;2023-07-02T18:00:24;97627.38;;;24.71;34.00
34983;BME280;21187;50.976;13.720;2023-07-02T18:05:26;97642.09;;;24.59;34.23
34983;BME280;21187;50.976;13.720;2023-07-02T18:10:28;97636.66;;;24.46;34.41
34983;BME280;21187;50.976;13.720;2023-07-02T18:15:31;97645.66;;;24.28;34.55
34983;BME280;21187;50.976;13.720;2023-07-02T18:20:33;97645.41;;;24.35;34.46
34983;BME280;21187;50.976;13.720;2023-07-02T18:25:35;97648.19;;;24.45;34.73
34983;BME280;21187;50.976;13.720;2023-07-02T18:30:47;97647.88;;;24.42;34.70
34983;BME280;21187;50.976;13.720;2023-07-02T18:35:50;97652.13;;;24.25;34.91
34983;BME280;21187;50.976;13.720;2023-07-02T18:41:07;97640.59;;;24.26;35.05
34983;BME280;21187;50.976;13.720;2023-07-02T18:46:10;97657.16;;;24.17;35.22
34983;BME280;21187;50.976;13.720;2023-07-02T18:51:12;97659.75;;;24.12;35.01
34983;BME280;21187;50.976;13.720;2023-07-02T18:56:14;97652.56;;;23.92;35.54
34983;BME280;21187;50.976;13.720;2023-07-02T19:01:16;97654.13;;;23.93;35.22
34983;BME280;21187;50.976;13.720;2023-07-02T19:06:18;97654.31;;;23.99;34.97
34983;BME280;21187;50.976;13.720;2023-07-02T19:11:21;97651.06;;;24.00;35.29
34983;BME280;21187;50.976;13.720;2023-07-02T19:16:23;97656.56;;;23.91;35.14
34983;BME280;21187;50.976;13.720;2023-07-02T19:21:27;97668.50;;;23.88;35.19
34983;BME280;21187;50.976;13.720;2023-07-02T19:26:30;97664.41;;;23.70;35.19
34983;BME280;21187;50.976;13.720;2023-07-02T19:31:32;97672.66;;;23.61;35.66
34983;BME280;21187;50.976;13.720;2023-07-02T19:36:34;97671.09;;;23.60;35.54
34983;BME280;21187;50.976;13.720;2023-07-02T19:41:36;97675.06;;;23.59;35.63
34983;BME280;21187;50.976;13.720;2023-07-02T19:46:41;97680.34;;;23.66;35.66
34983;BME280;21187;50.976;13.720;2023-07-02T19:51:43;97691.13;;;23.51;35.90
34983;BME280;21187;50.976;13.720;2023-07-02T19:56:52;97688.84;;;23.50;36.00
34983;BME280;21187;50.976;13.720;2023-07-02T20:01:54;97694.63;;;23.42;36.19
34983;BME280;21187;50.976;13.720;2023-07-02T20:06:56;97703.06;;;23.26;36.50
34983;BME280;21187;50.976;13.720;2023-07-02T20:11:59;97697.22;;;23.11;36.94
34983;BME280;21187;50.976;13.720;2023-07-02T20:17:04;97696.44;;;23.10;37.13
34983;BME280;21187;50.976;13.720;2023-07-02T20:22:07;97696.34;;;23.14;37.07
34983;BME280;21187;50.976;13.720;2023-07-02T20:27:09;97697.38;;;22.94;37.37
34983;BME280;21187;50.976;13.720;2023-07-02T20:32:11;97702.03;;;22.85;37.59
34983;BME280;21187;50.976;13.720;2023-07-02T20:37:14;97706.13;;;22.80;37.88
34983;BME280;21187;50.976;13.720;2023-07-02T20:42:17;97712.28;;;22.84;37.86
34983;BME280;21187;50.976;13.720;2023-07-02T20:47:19;97705.34;;;22.92;37.89
34983;BME280;21187;50.976;13.720;2023-07-02T20:52:25;97719.66;;;23.00;37.73
34983;BME280;21187;50.976;13.720;2023-07-02T20:57:29;97731.03;;;23.02;37.71
34983;BME280;21187;50.976;13.720;2023-07-02T21:02:31;97725.97;;;23.01;37.62
34983;BME280;21187;50.976;13.720;2023-07-02T21:07:33;97731.50;;;23.01;37.75
34983;BME280;21187;50.976;13.720;2023-07-02T21:12:35;97741.34;;;22.89;38.25
34983;BME280;21187;50.976;13.720;2023-07-02T21:17:37;97754.16;;;22.44;39.09
34983;BME280;21187;50.976;13.720;2023-07-02T21:22:39;97763.13;;;22.19;39.60
34983;BME280;21187;50.976;13.720;2023-07-02T21:27:41;97762.66;;;22.07;39.76
34983;BME280;21187;50.976;13.720;2023-07-02T21:32:46;97772.81;;;22.10;39.72
34983;BME280;21187;50.976;13.720;2023-07-02T21:37:49;97776.56;;;22.17;39.49
34983;BME280;21187;50.976;13.720;2023-07-02T21:42:51;97777.38;;;22.17;39.44
34983;BME280;21187;50.976;13.720;2023-07-02T21:47:53;97793.53;;;22.02;39.85
34983;BME280;21187;50.976;13.720;2023-07-02T21:52:55;97791.97;;;22.01;39.77
34983;BME280;21187;50.976;13.720;2023-07-02T21:57:58;97792.66;;;22.05;39.66
34983;BME280;21187;50.976;13.720;2023-07-02T22:03:01;97795.91;;;21.87;39.98
34983;BME280;21187;50.976;13.720;2023-07-02T22:08:03;97796.44;;;21.82;39.90
34983;BME280;21187;50.976;13.720;2023-07-02T22:13:06;97794.03;;;21.84;39.97
34983;BME280;21187;50.976;13.720;2023-07-02T22:18:08;97798.50;;;22.07;39.65
34983;BME280;21187;50.976;13.720;2023-07-02T22:23:10;97794.69;;;22.18;39.35
34983;BME280;21187;50.976;13.720;2023-07-02T22:28:12;97805.72;;;22.18;39.28
34983;BME280;21187;50.976;13.720;2023-07-02T22:33:14;97800.97;;;22.18;39.23
34983;BME280;21187;50.976;13.720;2023-07-02T22:38:16;97804.03;;;22.07;39.35
34983;BME280;21187;50.976;13.720;2023-07-02T22:43:17;97806.56;;;21.85;39.88
34983;BME280;21187;50.976;13.720;2023-07-02T22:48:20;97791.88;;;21.75;40.00
34983;BME280;21187;50.976;13.720;2023-07-02T22:53:22;97797.56;;;21.68;40.03
34983;BME280;21187;50.976;13.720;2023-07-02T22:58:24;97791.06;;;21.62;40.24
34983;BME280;21187;50.976;13.720;2023-07-02T23:03:26;97790.63;;;21.64;40.36
34983;BME280;21187;50.976;13.720;2023-07-02T23:08:28;97787.78;;;21.67;40.29
34983;BME280;21187;50.976;13.720;2023-07-02T23:13:30;97781.91;;;21.65;40.42
34983;BME280;21187;50.976;13.720;2023-07-02T23:18:32;97783.63;;;21.59;40.45
34983;BME280;21187;50.976;13.720;2023-07-02T23:23:36;97779.75;;;21.56;40.55
34983;BME280;21187;50.976;13.720;2023-07-02T23:28:40;97762.66;;;21.49;40.52
34983;BME280;21187;50.976;13.720;2023-07-02T23:33:42;97763.84;;;21.48;40.63
34983;BME280;21187;50.976;13.720;2023-07-02T23:38:44;97773.81;;;21.41;40.75
34983;BME280;21187;50.976;13.720;2023-07-02T23:43:46;97762.50;;;21.23;40.97
34983;BME280;21187;50.976;13.720;2023-07-02T23:48:48;97757.94;;;21.16;41.37
34983;BME280;21187;50.976;13.720;2023-07-02T23:53:50;97762.56;;;21.19;41.16
34983;BME280;21187;50.976;13.720;2023-07-02T23:58:52;97762.56;;;21.19;41.19
